createdAt,value
2018-11-28T00:01:21.220Z,56.56
2018-11-28T00:03:48.116Z,57.04
2018-11-28T00:06:15.056Z,57.13
2018-11-28T00:08:41.966Z,56.27
2018-11-28T00:11:08.880Z,56.80
2018-11-28T00:13:35.802Z,56.35
2018-11-28T00:16:02.699Z,56.78
2018-11-28T00:18:29.609Z,57.12
2018-11-28T00:20:56.511Z,56.02
2018-11-28T00:23:23.412Z,56.68
2018-11-28T00:25:50.312Z,56.13
2018-11-28T00:28:17.221Z,56.11
2018-11-28T00:30:44.118Z,56.50
2018-11-28T00:33:11.008Z,56.72
2018-11-28T00:35:37.940Z,56.64
2018-11-28T00:38:04.843Z,56.21
2018-11-28T00:40:31.779Z,56.52
2018-11-28T00:42:58.685Z,56.64
2018-11-28T00:45:26.000Z,56.03
2018-11-28T00:47:52.895Z,55.95
2018-11-28T00:50:19.812Z,56.47
2018-11-28T00:52:46.707Z,55.92
2018-11-28T00:55:13.631Z,56.69
2018-11-28T00:57:40.542Z,56.61
2018-11-28T01:00:07.492Z,56.72
2018-11-28T01:02:34.421Z,56.66
2018-11-28T01:05:01.316Z,56.13
2018-11-28T01:07:28.211Z,56.20
2018-11-28T01:09:55.120Z,56.72
2018-11-28T01:12:22.020Z,56.05
2018-11-28T01:14:48.917Z,56.69
2018-11-28T01:17:15.819Z,56.67
2018-11-28T01:19:42.712Z,56.48
2018-11-28T01:22:09.691Z,56.63
2018-11-28T01:24:36.616Z,56.34
2018-11-28T01:27:03.527Z,56.45
2018-11-28T01:29:30.426Z,55.90
2018-11-28T01:31:57.319Z,56.30
2018-11-28T01:34:24.239Z,55.90
2018-11-28T01:36:51.187Z,56.79
2018-11-28T01:39:18.108Z,56.13
2018-11-28T01:41:45.036Z,55.87
2018-11-28T01:44:11.948Z,56.44
2018-11-28T01:46:38.883Z,56.75
2018-11-28T01:49:05.793Z,56.69
2018-11-28T01:51:32.695Z,56.54
2018-11-28T01:53:59.600Z,56.47
2018-11-28T01:56:26.530Z,56.57
2018-11-28T01:58:53.424Z,56.51
2018-11-28T02:01:20.337Z,56.36
2018-11-28T02:03:47.268Z,56.45
2018-11-28T02:06:14.159Z,56.04
2018-11-28T02:08:41.088Z,56.31
2018-11-28T02:11:07.981Z,56.37
2018-11-28T02:13:34.887Z,56.62
2018-11-28T02:16:01.783Z,55.96
2018-11-28T02:18:28.671Z,56.57
2018-11-28T02:20:55.591Z,56.64
2018-11-28T02:23:22.497Z,56.63
2018-11-28T02:25:49.427Z,56.53
2018-11-28T02:28:16.321Z,56.66
2018-11-28T02:30:43.286Z,56.20
2018-11-28T02:33:10.185Z,56.41
2018-11-28T02:35:37.098Z,56.63
2018-11-28T02:38:03.994Z,56.10
2018-11-28T02:40:30.919Z,56.79
2018-11-28T02:42:57.842Z,56.78
2018-11-28T02:45:24.747Z,56.86
2018-11-28T02:47:51.750Z,56.27
2018-11-28T02:50:18.655Z,55.99
2018-11-28T02:52:45.551Z,56.67
2018-11-28T02:55:12.475Z,56.22
2018-11-28T02:57:39.370Z,56.00
2018-11-28T03:00:06.271Z,56.74
2018-11-28T03:02:33.187Z,56.51
2018-11-28T03:05:00.178Z,56.83
2018-11-28T03:07:27.068Z,56.53
2018-11-28T03:09:53.999Z,56.55
2018-11-28T03:12:20.889Z,56.84
2018-11-28T03:14:47.816Z,56.85
2018-11-28T03:17:20.087Z,56.67
2018-11-28T03:19:47.002Z,56.68
2018-11-28T03:22:13.906Z,56.69
2018-11-28T03:24:40.808Z,56.78
2018-11-28T03:27:11.461Z,56.57
2018-11-28T03:29:38.381Z,56.17
2018-11-28T03:32:05.303Z,56.52
2018-11-28T03:34:32.216Z,56.29
2018-11-28T03:36:59.111Z,56.71
2018-11-28T03:39:26.033Z,56.72
2018-11-28T03:41:52.955Z,56.66
2018-11-28T03:44:19.860Z,56.72
2018-11-28T03:46:46.780Z,56.23
2018-11-28T03:49:13.724Z,56.12
2018-11-28T03:51:40.630Z,56.80
2018-11-28T03:54:07.534Z,56.80
2018-11-28T03:56:34.419Z,56.08
2018-11-28T03:59:01.319Z,56.54
2018-11-28T04:01:28.217Z,56.44
2018-11-28T04:03:55.115Z,56.05
2018-11-28T04:06:22.020Z,56.76
2018-11-28T04:08:48.939Z,56.26
2018-11-28T04:11:15.836Z,56.12
2018-11-28T04:13:42.727Z,56.89
2018-11-28T04:16:09.637Z,56.74
2018-11-28T04:18:36.574Z,56.22
2018-11-28T04:21:03.466Z,56.60
2018-11-28T04:23:30.364Z,56.26
2018-11-28T04:25:57.259Z,56.73
2018-11-28T04:28:24.159Z,56.52
2018-11-28T04:30:51.061Z,56.20
2018-11-28T04:33:17.957Z,56.15
2018-11-28T04:35:44.851Z,56.96
2018-11-28T04:38:11.738Z,56.91
2018-11-28T04:40:38.637Z,55.98
2018-11-28T04:43:05.544Z,56.81
2018-11-28T04:45:32.467Z,56.69
2018-11-28T04:47:59.377Z,56.07
2018-11-28T04:50:26.267Z,56.92
2018-11-28T04:52:53.172Z,56.17
2018-11-28T04:55:20.120Z,56.67
2018-11-28T04:57:47.041Z,56.21
2018-11-28T05:00:13.985Z,56.01
2018-11-28T05:02:40.881Z,56.96
2018-11-28T05:05:07.805Z,56.79
2018-11-28T05:07:34.699Z,56.37
2018-11-28T05:10:01.611Z,56.65
2018-11-28T05:12:28.508Z,56.73
2018-11-28T05:14:55.409Z,56.47
2018-11-28T05:17:22.301Z,56.01
2018-11-28T05:19:49.199Z,56.15
2018-11-28T05:22:16.165Z,55.73
2018-11-28T05:24:43.063Z,56.71
2018-11-28T05:27:10.007Z,56.58
2018-11-28T05:29:36.904Z,56.12
2018-11-28T05:32:03.795Z,55.91
2018-11-28T05:34:30.678Z,56.48
2018-11-28T05:36:57.562Z,56.34
2018-11-28T05:39:24.461Z,55.82
2018-11-28T05:41:51.404Z,56.63
2018-11-28T05:44:18.303Z,56.42
2018-11-28T05:46:45.190Z,56.08
2018-11-28T05:49:15.079Z,56.12
2018-11-28T05:51:39.031Z,56.82
2018-11-28T05:54:05.918Z,56.18
2018-11-28T05:56:32.816Z,56.39
2018-11-28T05:58:59.728Z,56.50
2018-11-28T06:01:26.628Z,56.19
2018-11-28T06:03:53.523Z,56.31
2018-11-28T06:06:20.443Z,56.14
2018-11-28T06:08:47.367Z,55.68
2018-11-28T06:11:14.255Z,55.71
2018-11-28T06:13:41.155Z,56.05
2018-11-28T06:16:08.047Z,56.16
2018-11-28T06:18:34.957Z,56.41
2018-11-28T06:21:01.852Z,56.47
2018-11-28T06:23:28.775Z,56.14
2018-11-28T06:25:55.691Z,55.92
2018-11-28T06:28:22.591Z,56.09
2018-11-28T06:30:49.487Z,55.66
2018-11-28T06:33:16.384Z,56.44
2018-11-28T06:35:43.275Z,56.12
2018-11-28T06:38:10.162Z,56.00
2018-11-28T06:40:37.059Z,55.93
2018-11-28T06:43:03.957Z,56.52
2018-11-28T06:45:30.847Z,55.97
2018-11-28T06:47:57.752Z,55.95
2018-11-28T06:50:24.639Z,55.82
2018-11-28T06:52:51.603Z,56.17
2018-11-28T06:55:18.486Z,56.29
2018-11-28T06:57:45.376Z,56.46
2018-11-28T07:00:12.272Z,56.17
2018-11-28T07:02:39.166Z,56.71
2018-11-28T07:05:06.064Z,55.81
2018-11-28T07:07:32.958Z,55.76
2018-11-28T07:09:59.866Z,56.00
2018-11-28T07:12:26.807Z,55.55
2018-11-28T07:14:53.700Z,56.27
2018-11-28T07:17:20.599Z,55.85
2018-11-28T07:19:47.491Z,56.42
2018-11-28T07:22:14.391Z,56.15
2018-11-28T07:24:41.316Z,55.54
2018-11-28T07:27:08.231Z,55.45
2018-11-28T07:29:35.110Z,55.74
2018-11-28T07:32:02.003Z,56.10
2018-11-28T07:34:28.899Z,56.68
2018-11-28T07:36:55.801Z,56.35
2018-11-28T07:39:22.708Z,56.38
2018-11-28T07:41:49.612Z,56.00
2018-11-28T07:44:16.531Z,55.69
2018-11-28T07:46:43.428Z,56.10
2018-11-28T07:49:10.339Z,55.69
2018-11-28T07:51:37.226Z,56.21
2018-11-28T07:54:04.115Z,56.10
2018-11-28T07:56:31.000Z,55.52
2018-11-28T07:58:57.901Z,55.57
2018-11-28T08:01:24.805Z,55.55
2018-11-28T08:03:51.732Z,55.47
2018-11-28T08:06:18.676Z,56.27
2018-11-28T08:08:45.564Z,56.11
2018-11-28T08:11:12.483Z,55.96
2018-11-28T08:13:39.475Z,56.07
2018-11-28T08:16:06.372Z,56.08
2018-11-28T08:18:33.296Z,55.53
2018-11-28T08:21:00.188Z,56.11
2018-11-28T08:23:28.147Z,55.60
2018-11-28T08:25:54.113Z,55.37
2018-11-28T08:28:22.250Z,55.88
2018-11-28T08:30:47.974Z,56.09
2018-11-28T08:33:14.863Z,56.05
2018-11-28T08:35:41.760Z,55.70
2018-11-28T08:38:08.674Z,56.05
2018-11-28T08:40:35.569Z,56.01
2018-11-28T08:43:02.464Z,55.98
2018-11-28T08:45:29.363Z,55.67
2018-11-28T08:47:56.252Z,55.93
2018-11-28T08:50:23.147Z,56.11
2018-11-28T08:52:50.046Z,56.03
2018-11-28T08:55:16.963Z,56.19
2018-11-28T08:57:43.860Z,55.97
2018-11-28T09:00:10.796Z,55.97
2018-11-28T09:02:37.697Z,56.11
2018-11-28T09:05:04.604Z,54.92
2018-11-28T09:07:31.575Z,52.34
2018-11-28T09:09:58.467Z,51.64
2018-11-28T09:12:25.391Z,52.07
2018-11-28T09:14:52.307Z,52.46
2018-11-28T09:17:19.195Z,52.10
2018-11-28T09:19:46.116Z,52.40
2018-11-28T09:22:13.009Z,53.13
2018-11-28T09:24:39.920Z,50.02
2018-11-28T09:27:06.820Z,49.58
2018-11-28T09:29:33.724Z,52.30
2018-11-28T09:32:00.622Z,49.55
2018-11-28T09:34:27.551Z,52.32
2018-11-28T09:36:54.455Z,53.76
2018-11-28T09:39:21.354Z,53.49
2018-11-28T09:41:48.252Z,53.07
2018-11-28T09:44:15.176Z,52.36
2018-11-28T09:46:42.091Z,52.31
2018-11-28T09:49:09.053Z,46.53
2018-11-28T09:51:35.943Z,47.29
2018-11-28T09:54:02.860Z,49.01
2018-11-28T09:56:29.759Z,49.87
2018-11-28T09:58:56.664Z,50.04
2018-11-28T10:01:23.566Z,49.90
2018-11-28T10:03:50.460Z,41.54
2018-11-28T10:06:17.369Z,41.22
2018-11-28T10:08:44.277Z,42.09
2018-11-28T10:11:11.188Z,42.18
2018-11-28T10:13:38.077Z,42.81
2018-11-28T10:16:05.015Z,42.80
2018-11-28T10:18:31.933Z,44.27
2018-11-28T10:20:58.844Z,43.22
2018-11-28T10:23:25.746Z,43.12
2018-11-28T10:25:52.739Z,45.18
2018-11-28T10:28:19.655Z,44.18
2018-11-28T10:30:46.548Z,43.96
2018-11-28T10:33:13.448Z,43.94
2018-11-28T10:35:40.340Z,44.22
2018-11-28T10:38:07.246Z,45.43
2018-11-28T10:40:34.155Z,44.79
2018-11-28T10:43:01.105Z,45.16
2018-11-28T10:45:28.009Z,45.06
2018-11-28T10:47:54.932Z,43.56
2018-11-28T10:50:21.913Z,45.46
2018-11-28T10:52:48.792Z,45.83
2018-11-28T10:55:15.700Z,46.34
2018-11-28T10:57:42.598Z,45.81
2018-11-28T11:00:13.740Z,45.99
2018-11-28T11:02:46.035Z,46.04
2018-11-28T11:05:18.248Z,46.68
2018-11-28T11:07:50.481Z,46.21
2018-11-28T11:10:22.736Z,46.02
2018-11-28T11:12:55.101Z,46.93
2018-11-28T11:15:21.995Z,46.39
2018-11-28T11:17:48.887Z,46.40
2018-11-28T11:20:15.776Z,47.09
2018-11-28T11:22:42.676Z,46.87
2018-11-28T11:25:09.583Z,46.30
2018-11-28T11:27:36.506Z,47.04
2018-11-28T11:30:03.417Z,46.13
2018-11-28T11:32:30.369Z,46.08
2018-11-28T11:34:57.271Z,47.21
2018-11-28T11:37:24.175Z,47.04
2018-11-28T11:39:51.074Z,47.01
2018-11-28T11:42:17.986Z,47.28
2018-11-28T11:44:44.920Z,47.10
2018-11-28T11:47:11.829Z,47.19
2018-11-28T11:49:38.750Z,47.29
2018-11-28T11:52:05.657Z,47.40
2018-11-28T11:54:32.558Z,46.60
2018-11-28T11:56:59.487Z,47.41
2018-11-28T11:59:26.390Z,47.66
2018-11-28T12:01:54.845Z,47.57
2018-11-28T12:04:20.274Z,47.02
2018-11-28T12:06:47.179Z,47.63
2018-11-28T12:09:14.083Z,47.74
2018-11-28T12:11:40.994Z,47.82
2018-11-28T12:14:07.900Z,47.82
2018-11-28T12:16:34.815Z,48.57
2018-11-28T12:19:01.830Z,48.03
2018-11-28T12:21:28.802Z,48.14
2018-11-28T12:23:55.829Z,48.75
2018-11-28T12:26:22.728Z,48.62
2018-11-28T12:28:49.643Z,48.74
2018-11-28T12:31:16.679Z,48.85
2018-11-28T12:33:43.637Z,49.44
2018-11-28T12:36:10.621Z,49.15
2018-11-28T12:38:37.593Z,48.77
2018-11-28T12:41:05.072Z,48.75
2018-11-28T12:43:32.060Z,48.78
2018-11-28T12:45:58.979Z,48.86
2018-11-28T12:48:25.944Z,49.10
2018-11-28T12:50:52.957Z,49.07
2018-11-28T12:53:19.994Z,49.36
2018-11-28T12:55:46.950Z,49.25
2018-11-28T12:58:13.912Z,49.20
2018-11-28T13:00:41.117Z,49.17
2018-11-28T13:03:08.081Z,49.88
2018-11-28T13:05:35.016Z,49.58
2018-11-28T13:08:02.006Z,49.97
2018-11-28T13:10:28.937Z,50.21
2018-11-28T13:12:55.911Z,49.88
2018-11-28T13:15:22.915Z,49.74
2018-11-28T13:17:49.897Z,49.83
2018-11-28T13:20:16.945Z,49.64
2018-11-28T13:22:43.956Z,49.96
2018-11-28T13:25:10.923Z,50.39
2018-11-28T13:27:37.927Z,50.95
2018-11-28T13:30:04.912Z,50.89
2018-11-28T13:32:31.834Z,50.79
2018-11-28T13:34:58.772Z,49.75
2018-11-28T13:37:25.799Z,50.69
2018-11-28T13:39:52.712Z,50.21
2018-11-28T13:42:19.731Z,50.60
2018-11-28T13:44:46.626Z,50.12
2018-11-28T13:47:13.588Z,50.14
2018-11-28T13:49:40.506Z,50.47
2018-11-28T13:52:07.550Z,50.93
2018-11-28T13:55:36.489Z,50.80
2018-11-28T13:57:04.263Z,50.38
2018-11-28T13:59:28.663Z,50.46
2018-11-28T14:01:55.675Z,50.54
2018-11-28T14:04:22.661Z,50.97
2018-11-28T14:06:49.640Z,50.33
2018-11-28T14:09:16.562Z,50.42
2018-11-28T14:11:43.554Z,51.36
2018-11-28T14:14:10.529Z,50.62
2018-11-28T14:16:37.546Z,50.68
2018-11-28T14:19:04.507Z,50.57
2018-11-28T14:21:31.413Z,51.29
2018-11-28T14:23:58.447Z,51.54
2018-11-28T14:26:25.440Z,50.76
2018-11-28T14:28:52.349Z,50.71
2018-11-28T14:31:19.258Z,50.97
2018-11-28T14:33:50.739Z,51.25
2018-11-28T14:36:14.158Z,50.68
2018-11-28T14:38:41.178Z,50.79
2018-11-28T14:41:08.320Z,50.72
2018-11-28T14:43:35.323Z,51.39
2018-11-28T14:46:02.275Z,51.43
2018-11-28T14:48:30.335Z,51.00
2018-11-28T14:50:57.271Z,51.09
2018-11-28T14:53:24.163Z,51.58
2018-11-28T14:55:51.069Z,52.14
2018-11-28T14:58:17.976Z,52.37
2018-11-28T15:00:44.894Z,52.52
2018-11-28T15:03:11.821Z,51.61
2018-11-28T15:05:38.738Z,51.68
2018-11-28T15:08:05.665Z,51.58
2018-11-28T15:10:32.560Z,51.67
2018-11-28T15:12:59.469Z,51.04
2018-11-28T15:15:26.359Z,51.07
2018-11-28T15:17:53.260Z,51.74
2018-11-28T15:20:20.209Z,51.75
2018-11-28T15:22:47.216Z,51.81
2018-11-28T15:25:14.250Z,51.15
2018-11-28T15:27:41.257Z,51.19
2018-11-28T15:30:08.280Z,50.88
2018-11-28T15:32:35.292Z,51.83
2018-11-28T15:35:02.336Z,51.38
2018-11-28T15:37:29.366Z,51.50
2018-11-28T15:39:56.491Z,51.33
2018-11-28T15:42:23.454Z,51.71
2018-11-28T15:44:50.462Z,51.75
2018-11-28T15:47:17.441Z,51.36
2018-11-28T15:49:44.416Z,51.65
2018-11-28T15:52:11.312Z,51.12
2018-11-28T15:54:38.203Z,51.85
2018-11-28T15:57:05.187Z,50.99
2018-11-28T15:59:32.074Z,51.90
2018-11-28T16:01:58.962Z,51.04
2018-11-28T16:04:25.874Z,52.02
2018-11-28T16:06:52.769Z,51.28
2018-11-28T16:09:25.147Z,51.64
2018-11-28T16:11:52.051Z,51.37
2018-11-28T16:14:18.947Z,51.44
2018-11-28T16:16:45.838Z,51.88
2018-11-28T16:19:12.740Z,50.93
2018-11-28T16:21:39.748Z,51.84
2018-11-28T16:24:06.652Z,51.28
2018-11-28T16:26:33.560Z,51.52
2018-11-28T16:29:00.465Z,51.21
2018-11-28T16:31:27.363Z,51.07
2018-11-28T16:33:54.287Z,51.68
2018-11-28T16:36:21.170Z,51.22
2018-11-28T16:38:48.071Z,51.05
2018-11-28T16:41:14.958Z,51.45
2018-11-28T16:43:41.852Z,50.81
2018-11-28T16:46:08.770Z,51.54
2018-11-28T16:48:35.688Z,51.19
2018-11-28T16:51:02.629Z,51.44
2018-11-28T16:53:29.529Z,51.18
2018-11-28T16:55:56.424Z,51.04
2018-11-28T16:58:23.324Z,51.87
2018-11-28T17:00:50.306Z,51.52
2018-11-28T17:03:17.284Z,51.49
2018-11-28T17:05:44.205Z,51.34
2018-11-28T17:08:11.101Z,51.64
2018-11-28T17:10:38.003Z,52.32
2018-11-28T17:13:04.903Z,52.14
2018-11-28T17:15:31.803Z,52.11
2018-11-28T17:17:58.710Z,51.66
2018-11-28T17:20:25.725Z,51.43
2018-11-28T17:22:52.884Z,51.57
2018-11-28T17:25:20.129Z,52.25
2018-11-28T17:27:47.033Z,52.11
2018-11-28T17:30:18.594Z,52.15
2018-11-28T17:32:40.896Z,51.34
2018-11-28T17:35:07.803Z,51.64
2018-11-28T17:37:34.700Z,51.58
2018-11-28T17:40:01.696Z,52.34
2018-11-28T17:42:28.622Z,51.52
2018-11-28T17:44:55.524Z,52.26
2018-11-28T17:47:22.448Z,51.99
2018-11-28T17:49:49.338Z,52.38
2018-11-28T17:52:16.331Z,52.09
2018-11-28T17:54:43.310Z,53.06
2018-11-28T17:57:10.215Z,53.21
2018-11-28T17:59:37.117Z,54.08
2018-11-28T18:02:04.042Z,54.30
2018-11-28T18:04:30.988Z,54.08
2018-11-28T18:06:57.915Z,53.55
2018-11-28T18:09:24.803Z,53.77
2018-11-28T18:11:51.716Z,53.98
2018-11-28T18:14:18.617Z,54.05
2018-11-28T18:16:45.593Z,54.25
2018-11-28T18:19:12.488Z,53.61
2018-11-28T18:21:39.382Z,54.21
2018-11-28T18:24:06.289Z,54.08
2018-11-28T18:26:33.184Z,53.85
2018-11-28T18:29:00.131Z,53.35
2018-11-28T18:31:27.077Z,53.15
2018-11-28T18:33:54.024Z,53.04
2018-11-28T18:36:20.949Z,50.52
2018-11-28T18:38:47.880Z,50.77
2018-11-28T18:41:14.802Z,52.17
2018-11-28T18:43:41.705Z,51.93
2018-11-28T18:46:08.605Z,52.39
2018-11-28T18:48:35.505Z,52.56
2018-11-28T18:51:02.474Z,52.48
2018-11-28T18:53:29.373Z,52.26
2018-11-28T18:55:56.291Z,51.94
2018-11-28T18:58:23.182Z,52.47
2018-11-28T19:00:50.073Z,52.52
2018-11-28T19:03:16.977Z,52.63
2018-11-28T19:05:43.919Z,51.96
2018-11-28T19:08:10.849Z,52.45
2018-11-28T19:10:37.752Z,52.45
2018-11-28T19:13:04.656Z,52.59
2018-11-28T19:15:31.575Z,53.01
2018-11-28T19:17:58.485Z,53.33
2018-11-28T19:20:25.413Z,52.68
2018-11-28T19:22:52.310Z,53.47
2018-11-28T19:25:19.204Z,53.24
2018-11-28T19:27:46.103Z,53.44
2018-11-28T19:30:12.992Z,52.92
2018-11-28T19:32:39.882Z,52.65
2018-11-28T19:35:06.780Z,53.24
2018-11-28T19:37:33.700Z,53.57
2018-11-28T19:40:00.595Z,52.92
2018-11-28T19:42:27.524Z,53.58
2018-11-28T19:44:54.425Z,52.92
2018-11-28T19:47:21.350Z,52.73
2018-11-28T19:49:48.243Z,53.30
2018-11-28T19:52:15.152Z,53.13
2018-11-28T19:54:42.053Z,52.63
2018-11-28T19:57:08.951Z,53.51
2018-11-28T19:59:35.887Z,52.76
2018-11-28T20:02:02.792Z,53.00
2018-11-28T20:04:29.687Z,52.87
2018-11-28T20:06:56.596Z,53.66
2018-11-28T20:09:23.563Z,53.56
2018-11-28T20:11:50.483Z,53.59
2018-11-28T20:14:17.386Z,53.47
2018-11-28T20:16:44.294Z,53.65
2018-11-28T20:19:11.275Z,53.55
2018-11-28T20:21:38.159Z,53.12
2018-11-28T20:24:05.043Z,52.65
2018-11-28T20:26:31.999Z,52.52
2018-11-28T20:28:58.934Z,52.87
2018-11-28T20:31:25.835Z,53.13
2018-11-28T20:33:52.722Z,53.14
2018-11-28T20:36:19.641Z,52.90
2018-11-28T20:38:46.565Z,53.16
2018-11-28T20:41:13.474Z,52.90
2018-11-28T20:43:40.381Z,52.72
2018-11-28T20:46:07.337Z,52.98
2018-11-28T20:48:34.236Z,52.31
2018-11-28T20:51:01.124Z,53.09
2018-11-28T20:53:28.029Z,52.14
2018-11-28T20:55:54.939Z,52.91
2018-11-28T20:58:21.865Z,52.55
2018-11-28T21:00:48.767Z,52.11
2018-11-28T21:03:15.663Z,52.87
2018-11-28T21:05:42.551Z,52.44
2018-11-28T21:08:09.451Z,52.55
2018-11-28T21:10:37.189Z,53.02
2018-11-28T21:13:04.091Z,53.40
2018-11-28T21:15:31.103Z,52.89
2018-11-28T21:17:58.003Z,53.53
2018-11-28T21:20:24.895Z,53.58
2018-11-28T21:22:51.770Z,53.27
2018-11-28T21:25:18.665Z,52.72
2018-11-28T21:27:45.567Z,52.59
2018-11-28T21:30:12.488Z,52.92
2018-11-28T21:32:39.407Z,52.49
2018-11-28T21:35:06.295Z,52.66
2018-11-28T21:37:33.214Z,52.85
2018-11-28T21:40:00.107Z,53.13
2018-11-28T21:42:27.035Z,52.90
2018-11-28T21:44:53.952Z,53.19
2018-11-28T21:47:20.856Z,52.88
2018-11-28T21:49:47.767Z,53.08
2018-11-28T21:52:14.659Z,52.57
2018-11-28T21:54:41.585Z,53.16
2018-11-28T21:57:08.490Z,52.37
2018-11-28T21:59:35.396Z,52.54
2018-11-28T22:02:02.307Z,53.01
2018-11-28T22:04:29.230Z,53.63
2018-11-28T22:06:56.148Z,52.78
2018-11-28T22:09:23.114Z,52.94
2018-11-28T22:11:50.035Z,53.37
2018-11-28T22:14:16.941Z,53.22
2018-11-28T22:16:43.856Z,53.75
2018-11-28T22:19:10.743Z,53.21
2018-11-28T22:21:37.635Z,53.25
2018-11-28T22:24:04.541Z,54.01
2018-11-28T22:26:31.439Z,53.32
2018-11-28T22:28:58.360Z,53.37
2018-11-28T22:31:25.246Z,53.84
2018-11-28T22:33:52.153Z,53.30
2018-11-28T22:36:19.075Z,53.29
2018-11-28T22:38:45.985Z,53.35
2018-11-28T22:41:12.880Z,53.47
2018-11-28T22:43:39.809Z,53.48
2018-11-28T22:46:06.710Z,53.65
2018-11-28T22:48:33.816Z,53.22
2018-11-28T22:51:00.709Z,53.83
2018-11-28T22:56:00.828Z,53.85
2018-11-28T22:58:27.728Z,54.02
2018-11-28T23:00:59.932Z,53.73
2018-11-28T23:03:26.830Z,53.88
2018-11-28T23:05:53.736Z,53.92
2018-11-28T23:08:20.655Z,53.84
2018-11-28T23:10:47.565Z,53.90
2018-11-28T23:13:14.455Z,53.34
2018-11-28T23:15:41.355Z,53.44
2018-11-28T23:18:08.274Z,53.14
2018-11-28T23:20:35.180Z,53.88
2018-11-28T23:23:02.119Z,53.86
2018-11-28T23:25:29.020Z,53.53
2018-11-28T23:27:55.938Z,53.41
2018-11-28T23:30:22.911Z,53.92
2018-11-28T23:32:49.799Z,53.78
2018-11-28T23:35:16.708Z,54.06
2018-11-28T23:37:43.603Z,53.85
2018-11-28T23:40:10.535Z,52.92
2018-11-28T23:42:37.448Z,53.94
2018-11-28T23:45:04.339Z,53.92
2018-11-28T23:47:31.244Z,53.50
2018-11-28T23:49:58.148Z,53.34
2018-11-28T23:52:25.052Z,53.94
2018-11-28T23:54:51.947Z,53.36
2018-11-28T23:57:18.867Z,53.37
2018-11-28T23:59:45.758Z,53.69
